Aérodrome :
LOGIN :

S'inscrire | Disclaimer

   EN    FR    IT 

 










Légende :    VFR   VFR Marginal   IFR   IFR Intensif   IFR Très Intensif
Visi : 
Plafond : 
>= 8 km
>= 3000ft
5 à 8 km
1000 à 3000 ft
1500m à 5 km
500 à 1000 ft
800 à 1500m
200 à 500 ft
< 800m
< 200 ft
Symboles :   Orages  Brouillard  Fortes neiges  Fortes précipitations  Vent > 20 kt
SIGMETs :   Divers  Orages  Givrage  Turbulence  Onde Orograph.  Cendres Volcan.







- Altitude de l'aérodrome : 401 ft
- Code IATA : LEQ
- Voir les cartes d'approche


EGHC - Land's End

DERNIER METAR :
  • 220820Z 11018KT 3500 HZ NSC 13/10 Q1003

METARs EXPIRÉS :
  • 220750Z 11017KT 3000 HZ NSC 12/10 Q1003
  • 220720Z 10017KT 3000 HZ NSC 11/10 Q1003
  • 220650Z 10018KT 3000 HZ NSC 11/10 Q1003
  • 220620Z 10017KT 2000 HZ NSC 10/09 Q1004

TAF TAF EGHC
Valide du 22 à 06h jusqu'au 22 à 15h UTC


220655Z 2206/2215 11018KT 3000 HZ NSC
BECMG 2207/2210 6000 NSW
PROB40 2210/2215 CAVOK
Pas de NOTAMs connus pour ce terrain.



MET'MAP, la Météo Aéronautique d'un coup d'oeil ! - Copyright ORBIFLY Décembre 2007 - Disclaimer

ORBIFLY MET'MAP TEAM :

Programmation & Développement : Alexandra Zaïnal
Conception & Développement : Baudouin d'Aumeries
Co-Programmation & Développement : Marc-Olivier Méhu
Soutien technique & logistique : Manuel Goepfert

Contact : metmap@orbifly.com




SOURCES & CREDITS :

   NOAA